Terminal Aerodrome Forecast
Issued by NWS Grand Forks, ND

Home | Current Version | Previous Version | Graphics & Text | Print | Product List | Glossary On
Versions: 1 2 3 4 5 6 7 8 9 10 11 12 13 14 15
864
FTUS43 KFGF 241609 AAA
TAFGFK
TAF AMD
KGFK 241609Z 2416/2512 32017G24KT P6SM -SHRA BKN025
      TEMPO 2416/2420 2SM -DZ BKN015
     FM242000 32016G24KT P6SM -SHRA OVC020
     FM250000 33017KT P6SM BKN040
     FM250700 32010KT P6SM SCT090=

USA.gov is the U.S. government's official web portal to all federal, state and local government web resources and services.